createdAt,value
2022-11-05T00:01:52.814Z,5.50
2022-11-05T00:04:38.556Z,5.40
2022-11-05T00:07:46.657Z,5.40
2022-11-05T00:10:22.022Z,5.30
2022-11-05T00:13:07.935Z,5.30
2022-11-05T00:15:53.339Z,5.30
2022-11-05T00:18:20.298Z,5.30
2022-11-05T00:20:47.205Z,5.30
2022-11-05T00:23:32.294Z,5.30
2022-11-05T00:26:04.389Z,5.30
2022-11-05T00:28:31.318Z,5.30
2022-11-05T00:31:14.219Z,5.30
2022-11-05T00:33:42.148Z,5.40
2022-11-05T00:36:09.837Z,5.40
2022-11-05T00:38:36.869Z,5.40
2022-11-05T00:41:04.220Z,5.40
2022-11-05T00:43:49.366Z,5.50
2022-11-05T00:46:16.254Z,5.50
2022-11-05T00:49:01.563Z,5.60
2022-11-05T00:51:28.361Z,5.60
2022-11-05T00:53:55.226Z,5.70
2022-11-05T00:56:22.074Z,5.70
2022-11-05T00:58:49.026Z,5.80
2022-11-05T01:01:16.964Z,5.80
2022-11-05T01:03:50.407Z,5.80
2022-11-05T01:06:18.692Z,5.80
2022-11-05T01:08:45.815Z,5.90
2022-11-05T01:11:37.194Z,5.90
2022-11-05T01:14:07.861Z,6.00
2022-11-05T01:16:35.046Z,6.00
2022-11-05T01:19:02.935Z,6.10
2022-11-05T01:21:32.112Z,6.00
2022-11-05T01:23:58.935Z,6.10
2022-11-05T01:26:26.143Z,6.10
2022-11-05T01:28:56.942Z,6.10
2022-11-05T01:31:24.002Z,6.10
2022-11-05T01:33:51.028Z,6.10
2022-11-05T01:36:18.140Z,6.20
2022-11-05T01:38:46.377Z,6.20
2022-11-05T01:41:13.242Z,6.20
2022-11-05T01:43:54.683Z,6.20
2022-11-05T01:46:26.573Z,6.20
2022-11-05T01:48:57.265Z,6.30
2022-11-05T01:51:27.048Z,6.30
2022-11-05T01:54:03.105Z,6.30
2022-11-05T01:56:41.407Z,6.30
2022-11-05T01:59:16.584Z,6.40
2022-11-05T02:01:43.611Z,6.40
2022-11-05T02:04:12.061Z,6.40
2022-11-05T02:06:45.986Z,6.40
2022-11-05T02:09:40.892Z,6.40
2022-11-05T02:12:08.542Z,6.50
2022-11-05T02:14:35.517Z,6.50
2022-11-05T02:17:05.156Z,6.50
2022-11-05T02:20:06.465Z,6.50
2022-11-05T02:23:20.457Z,6.50
2022-11-05T02:25:47.276Z,6.50
2022-11-05T02:28:18.608Z,6.50
2022-11-05T02:31:02.397Z,6.50
2022-11-05T02:33:42.412Z,6.50
2022-11-05T02:36:43.360Z,6.50
2022-11-05T02:39:27.149Z,6.50
2022-11-05T02:42:06.603Z,6.50
2022-11-05T02:44:41.847Z,6.50
2022-11-05T02:47:08.646Z,6.50
2022-11-05T02:49:48.888Z,6.50
2022-11-05T02:52:23.877Z,6.50
2022-11-05T02:54:58.319Z,6.40
2022-11-05T02:57:25.347Z,6.40
2022-11-05T03:00:06.927Z,6.40
2022-11-05T03:02:33.985Z,6.40
2022-11-05T03:05:00.884Z,6.40
2022-11-05T03:07:39.685Z,6.40
2022-11-05T03:10:28.277Z,6.40
2022-11-05T03:13:22.995Z,6.30
2022-11-05T03:16:02.787Z,6.30
2022-11-05T03:18:39.762Z,6.30
2022-11-05T03:21:16.890Z,6.30
2022-11-05T03:23:52.282Z,6.30
2022-11-05T03:26:23.659Z,6.30
2022-11-05T03:29:02.482Z,6.30
2022-11-05T03:31:29.717Z,6.40
2022-11-05T03:33:56.598Z,6.40
2022-11-05T03:36:29.921Z,6.40
2022-11-05T03:38:56.870Z,6.40
2022-11-05T03:41:23.689Z,6.40
2022-11-05T03:43:52.095Z,6.50
2022-11-05T03:46:21.979Z,6.50
2022-11-05T03:48:52.898Z,6.50
2022-11-05T03:51:31.795Z,6.50
2022-11-05T03:54:00.244Z,6.60
2022-11-05T03:56:46.049Z,6.60
2022-11-05T03:59:12.956Z,6.60
2022-11-05T04:01:40.711Z,6.60
2022-11-05T04:04:09.481Z,6.60
2022-11-05T04:06:54.791Z,6.70
2022-11-05T04:09:40.141Z,6.70
2022-11-05T04:12:25.815Z,6.70
2022-11-05T04:14:52.696Z,6.70
2022-11-05T04:17:19.578Z,6.80
2022-11-05T04:20:05.678Z,6.70
2022-11-05T04:22:52.590Z,6.70
2022-11-05T04:25:20.121Z,6.80
2022-11-05T04:27:48.093Z,6.70
2022-11-05T04:30:20.125Z,6.70
2022-11-05T04:33:03.021Z,6.70
2022-11-05T04:35:36.863Z,6.70
2022-11-05T04:38:08.418Z,6.80
2022-11-05T04:40:35.365Z,6.80
2022-11-05T04:43:02.311Z,6.90
2022-11-05T04:45:30.782Z,6.90
2022-11-05T04:47:57.803Z,6.90
2022-11-05T04:50:24.699Z,6.90
2022-11-05T04:52:51.597Z,6.90
2022-11-05T04:55:18.540Z,7.00
2022-11-05T04:57:48.939Z,7.00
2022-11-05T05:00:15.794Z,7.00
2022-11-05T05:02:42.647Z,7.00
2022-11-05T05:05:09.506Z,7.00
2022-11-05T05:07:36.386Z,7.00
2022-11-05T05:10:04.420Z,7.00
2022-11-05T05:12:32.777Z,7.00
2022-11-05T05:14:59.778Z,7.10
2022-11-05T05:17:26.692Z,7.10
2022-11-05T05:20:12.316Z,7.20
2022-11-05T05:22:41.401Z,7.20
2022-11-05T05:25:08.502Z,7.30
2022-11-05T05:27:35.386Z,7.30
2022-11-05T05:30:02.432Z,7.30
2022-11-05T05:32:29.217Z,7.40
2022-11-05T05:34:56.280Z,7.40
2022-11-05T05:37:23.224Z,7.40
2022-11-05T05:39:51.446Z,7.40
2022-11-05T05:42:18.374Z,7.40
2022-11-05T05:44:45.794Z,7.40
2022-11-05T05:47:15.932Z,7.40
2022-11-05T05:49:42.754Z,7.40
2022-11-05T05:52:09.632Z,7.50
2022-11-05T05:54:42.249Z,7.50
2022-11-05T05:57:09.703Z,7.60
2022-11-05T05:59:36.539Z,7.60
2022-11-05T06:02:03.553Z,7.70
2022-11-05T06:04:33.378Z,7.80
2022-11-05T06:07:00.106Z,7.80
2022-11-05T06:09:26.974Z,7.90
2022-11-05T06:11:53.821Z,7.90
2022-11-05T06:14:20.646Z,7.90
2022-11-05T06:16:47.530Z,8.00
2022-11-05T06:19:14.374Z,8.00
2022-11-05T06:21:41.195Z,8.00
2022-11-05T06:24:08.591Z,8.10
2022-11-05T06:26:42.719Z,8.10
2022-11-05T06:29:10.764Z,8.10
2022-11-05T06:31:37.666Z,8.10
2022-11-05T06:34:04.513Z,8.10
2022-11-05T06:36:31.371Z,8.10
2022-11-05T06:38:59.315Z,8.10
2022-11-05T06:41:26.198Z,8.20
2022-11-05T06:43:53.083Z,8.20
2022-11-05T06:46:20.002Z,8.20
2022-11-05T06:48:47.448Z,8.20
2022-11-05T06:51:15.704Z,8.20
2022-11-05T06:53:42.611Z,8.30
2022-11-05T06:56:09.885Z,8.30
2022-11-05T06:58:36.786Z,8.30
2022-11-05T07:01:04.729Z,8.30
2022-11-05T07:03:31.808Z,8.30
2022-11-05T07:05:59.949Z,8.30
2022-11-05T07:08:30.954Z,8.30
2022-11-05T07:10:57.914Z,8.30
2022-11-05T07:13:24.771Z,8.40
2022-11-05T07:15:51.695Z,8.40
2022-11-05T07:18:18.581Z,8.40
2022-11-05T07:20:45.497Z,8.50
2022-11-05T07:23:13.751Z,8.50
2022-11-05T07:25:41.527Z,8.50
2022-11-05T07:28:09.006Z,8.50
2022-11-05T07:30:35.993Z,8.50
2022-11-05T07:33:03.180Z,8.60
2022-11-05T07:35:32.354Z,8.60
2022-11-05T07:37:59.226Z,8.60
2022-11-05T07:40:27.700Z,8.60
2022-11-05T07:42:58.359Z,8.60
2022-11-05T07:45:25.496Z,8.60
2022-11-05T07:48:00.507Z,8.60
2022-11-05T07:50:29.256Z,8.60
2022-11-05T07:53:11.564Z,8.70
2022-11-05T07:55:40.367Z,8.70
2022-11-05T07:58:07.304Z,8.70
2022-11-05T08:00:34.284Z,8.80
2022-11-05T08:03:08.493Z,8.80
2022-11-05T08:05:37.639Z,8.90
2022-11-05T08:08:05.080Z,8.90
2022-11-05T08:10:32.599Z,9.00
2022-11-05T08:13:00.736Z,9.00
2022-11-05T08:15:27.644Z,9.00
2022-11-05T08:18:01.070Z,9.10
2022-11-05T08:20:28.221Z,9.10
2022-11-05T08:22:55.523Z,9.10
2022-11-05T08:25:22.805Z,9.10
2022-11-05T08:27:56.041Z,9.20
2022-11-05T08:30:23.019Z,9.20
2022-11-05T08:32:49.856Z,9.20
2022-11-05T08:35:18.449Z,9.30
2022-11-05T08:37:45.284Z,9.30
2022-11-05T08:40:12.480Z,9.30
2022-11-05T08:42:39.354Z,9.40
2022-11-05T08:45:06.762Z,9.40
2022-11-05T08:47:33.672Z,9.40
2022-11-05T08:50:00.538Z,9.40
2022-11-05T08:52:27.373Z,9.50
2022-11-05T08:54:54.184Z,9.50
2022-11-05T08:57:21.235Z,9.60
2022-11-05T08:59:48.173Z,9.60
2022-11-05T09:02:15.409Z,9.70
2022-11-05T09:04:42.434Z,9.70
2022-11-05T09:07:09.640Z,9.80
2022-11-05T09:09:36.492Z,9.80
2022-11-05T09:12:12.116Z,9.90
2022-11-05T09:14:39.782Z,9.90
2022-11-05T09:17:15.542Z,10.00
2022-11-05T09:19:42.347Z,10.10
2022-11-05T09:22:52.464Z,10.20
2022-11-05T09:25:19.422Z,10.20
2022-11-05T09:27:46.268Z,10.30
2022-11-05T09:30:13.518Z,10.40
2022-11-05T15:15:22.235Z,12.50
2022-11-05T15:18:02.177Z,12.50
2022-11-05T15:20:46.381Z,12.60
2022-11-05T15:23:15.966Z,12.60
2022-11-05T15:25:56.301Z,12.60
2022-11-05T15:28:46.727Z,12.70
2022-11-05T15:31:13.570Z,12.70
2022-11-05T15:33:42.748Z,12.70
2022-11-05T15:36:30.053Z,12.70
2022-11-05T15:39:27.328Z,12.70
2022-11-05T15:41:43.965Z,12.70
2022-11-05T15:44:33.344Z,12.80
2022-11-05T15:47:19.459Z,12.80
2022-11-05T15:49:57.463Z,12.80
2022-11-05T15:52:31.723Z,12.80
2022-11-05T15:55:13.628Z,12.80
2022-11-05T15:57:50.632Z,12.80
2022-11-05T16:00:22.404Z,12.80
2022-11-05T16:02:56.515Z,12.80
2022-11-05T16:05:23.863Z,12.80
2022-11-05T16:07:50.667Z,12.80
2022-11-05T16:10:20.178Z,12.80
2022-11-05T16:12:47.224Z,12.80
2022-11-05T16:15:14.076Z,12.80
2022-11-05T16:17:51.056Z,12.80
2022-11-05T16:20:22.106Z,12.70
2022-11-05T16:22:51.127Z,12.80
2022-11-05T16:25:44.176Z,12.70
2022-11-05T16:28:25.003Z,12.70
2022-11-05T16:30:58.698Z,12.70
2022-11-05T16:33:37.945Z,12.70
2022-11-05T16:36:05.186Z,12.70
2022-11-05T16:38:32.037Z,12.70
2022-11-05T16:41:00.417Z,12.70
2022-11-05T16:43:27.341Z,12.70
2022-11-05T16:45:55.322Z,12.70
2022-11-05T16:48:22.263Z,12.60
2022-11-05T16:50:49.267Z,12.60
2022-11-05T16:53:16.233Z,12.70
2022-11-05T16:55:43.660Z,12.70
2022-11-05T16:58:21.670Z,12.70
2022-11-05T17:00:49.897Z,12.70
2022-11-05T17:03:16.972Z,12.70
2022-11-05T17:05:43.882Z,12.70
2022-11-05T17:08:10.986Z,12.70
2022-11-05T17:10:38.291Z,12.70
2022-11-05T17:13:05.237Z,12.70
2022-11-05T17:15:35.778Z,12.70
2022-11-05T17:18:03.091Z,12.70
2022-11-05T17:35:54.258Z,12.70
2022-11-05T17:38:21.481Z,12.70
2022-11-05T17:40:48.468Z,12.70
2022-11-05T17:43:16.057Z,12.70
2022-11-05T17:45:50.324Z,12.80
2022-11-05T17:48:17.422Z,12.80
2022-11-05T17:50:48.482Z,12.80
2022-11-05T17:53:16.410Z,12.80
2022-11-05T17:55:44.193Z,12.90
2022-11-05T17:58:11.269Z,12.90
2022-11-05T18:00:38.203Z,12.90
2022-11-05T18:03:05.101Z,12.90
2022-11-05T18:05:32.093Z,13.00
2022-11-05T18:07:58.968Z,13.00
2022-11-05T18:10:25.909Z,13.00
2022-11-05T18:12:52.777Z,13.00
2022-11-05T18:15:19.751Z,13.00
2022-11-05T18:17:46.820Z,13.00
2022-11-05T18:20:18.968Z,13.00
2022-11-05T18:22:46.848Z,13.00
2022-11-05T18:25:14.134Z,13.10
2022-11-05T18:27:40.995Z,13.00
2022-11-05T18:30:08.615Z,13.00
2022-11-05T18:32:35.641Z,13.00
2022-11-05T18:35:02.490Z,13.00
2022-11-05T18:37:29.365Z,13.10
2022-11-05T18:39:56.161Z,13.10
2022-11-05T18:42:23.096Z,13.10
2022-11-05T18:44:49.944Z,13.10
2022-11-05T18:47:16.850Z,13.10
2022-11-05T18:49:43.631Z,13.10
2022-11-05T18:52:10.489Z,13.10
2022-11-05T18:54:37.326Z,13.10
2022-11-05T18:57:04.253Z,13.20
2022-11-05T18:59:37.751Z,13.20
2022-11-05T19:02:05.764Z,13.20
2022-11-05T19:04:32.942Z,13.20
2022-11-05T19:07:04.501Z,13.20
2022-11-05T19:09:32.945Z,13.20
2022-11-05T19:11:59.757Z,13.30
2022-11-05T19:14:26.663Z,13.20
2022-11-05T19:16:53.452Z,13.30
2022-11-05T19:19:20.344Z,13.30
2022-11-05T19:21:47.279Z,13.20
2022-11-05T19:24:17.431Z,13.30
2022-11-05T19:26:44.680Z,13.30
2022-11-05T19:29:11.655Z,13.30
2022-11-05T19:31:38.509Z,13.20
2022-11-05T19:34:05.714Z,13.20
2022-11-05T19:36:32.984Z,13.20
2022-11-05T19:39:02.132Z,13.20
2022-11-05T19:41:29.200Z,13.20
2022-11-05T19:43:58.105Z,13.20
2022-11-05T19:46:25.050Z,13.20
2022-11-05T19:48:52.101Z,13.20
2022-11-05T19:51:20.688Z,13.20
2022-11-05T19:53:47.767Z,13.20
2022-11-05T19:56:19.477Z,13.20
2022-11-05T19:58:46.422Z,13.20
2022-11-05T20:01:14.192Z,13.20
2022-11-05T20:03:41.339Z,13.30
2022-11-05T20:06:12.811Z,13.30
2022-11-05T20:08:59.827Z,13.30
2022-11-05T20:11:27.313Z,13.30
2022-11-05T20:13:54.188Z,13.30
2022-11-05T20:16:21.486Z,13.30
2022-11-05T20:18:48.335Z,13.30
2022-11-05T20:21:15.192Z,13.30
2022-11-05T20:23:42.170Z,13.40
2022-11-05T20:26:09.172Z,13.30
2022-11-05T20:28:36.181Z,13.40
2022-11-05T20:31:07.569Z,13.40
2022-11-05T20:33:34.537Z,13.40
2022-11-05T20:36:02.561Z,13.40
2022-11-05T20:38:29.448Z,13.40
2022-11-05T20:40:56.337Z,13.40
2022-11-05T20:43:27.551Z,13.40
2022-11-05T20:45:58.280Z,13.40
2022-11-05T20:48:25.137Z,13.40
2022-11-05T20:50:52.120Z,13.40
2022-11-05T20:53:19.219Z,13.40
2022-11-05T20:55:47.389Z,13.50
2022-11-05T20:58:15.484Z,13.50
2022-11-05T21:00:53.054Z,13.50
2022-11-05T21:03:19.976Z,13.50
2022-11-05T21:05:54.460Z,13.50
2022-11-05T21:08:22.529Z,13.50
2022-11-05T21:10:51.371Z,13.50
2022-11-05T21:13:18.478Z,13.60
2022-11-05T21:15:50.217Z,13.60
2022-11-05T21:18:18.234Z,13.70
2022-11-05T21:20:45.953Z,13.60
2022-11-05T21:23:13.224Z,13.70
2022-11-05T21:25:43.481Z,13.70
2022-11-05T21:28:11.245Z,13.70
2022-11-05T21:30:41.584Z,13.70
2022-11-05T21:33:08.796Z,13.70
2022-11-05T21:35:39.963Z,13.80
2022-11-05T21:38:07.019Z,13.80
2022-11-05T21:40:33.870Z,13.80
2022-11-05T21:43:00.704Z,13.80
2022-11-05T21:45:27.690Z,13.80
2022-11-05T21:47:54.521Z,13.80
2022-11-05T21:50:41.378Z,13.80
2022-11-05T21:53:32.277Z,13.90
2022-11-05T21:56:17.372Z,13.90
2022-11-05T21:59:02.777Z,13.90
2022-11-05T22:01:31.852Z,13.90
2022-11-05T22:04:02.887Z,13.90
2022-11-05T22:06:32.939Z,13.90
2022-11-05T22:08:59.797Z,13.90
2022-11-05T22:11:26.658Z,13.90
2022-11-05T22:13:53.711Z,13.90
2022-11-05T22:16:20.575Z,13.90
2022-11-05T22:18:47.513Z,13.90
2022-11-05T22:21:18.644Z,14.00
2022-11-05T22:23:45.522Z,14.00
2022-11-05T22:26:12.332Z,14.00
2022-11-05T22:28:39.171Z,14.00
2022-11-05T22:31:12.944Z,14.00
2022-11-05T22:33:39.832Z,14.00
2022-11-05T22:36:07.176Z,14.00
2022-11-05T22:38:34.071Z,13.90
2022-11-05T22:41:06.269Z,13.90
2022-11-05T22:43:33.293Z,13.90
2022-11-05T22:46:05.174Z,13.90
2022-11-05T22:48:32.539Z,13.90
2022-11-05T22:51:06.399Z,13.90
2022-11-05T22:53:34.228Z,13.90
2022-11-05T22:56:11.499Z,13.90
2022-11-05T22:58:38.684Z,13.90
2022-11-05T23:01:06.255Z,13.90
2022-11-05T23:03:33.487Z,13.90
2022-11-05T23:06:05.880Z,13.90
2022-11-05T23:08:51.193Z,13.90
2022-11-05T23:11:38.019Z,13.90
2022-11-05T23:14:05.741Z,13.90
2022-11-05T23:16:51.411Z,13.90
2022-11-05T23:19:36.689Z,13.90
2022-11-05T23:22:22.603Z,13.90
2022-11-05T23:24:49.446Z,13.90
2022-11-05T23:27:16.251Z,13.90
2022-11-05T23:29:43.102Z,13.90
2022-11-05T23:32:24.947Z,13.90
2022-11-05T23:34:52.566Z,13.90
2022-11-05T23:37:38.786Z,13.90
2022-11-05T23:40:07.579Z,13.90
2022-11-05T23:42:53.091Z,13.90
2022-11-05T23:45:38.724Z,13.90
2022-11-05T23:48:17.491Z,13.90
2022-11-05T23:50:46.424Z,13.90
2022-11-05T23:53:13.333Z,13.90
2022-11-05T23:55:40.516Z,13.90
2022-11-05T23:58:07.680Z,13.90
